sensor_id;sensor_type;location;lat;lon;timestamp;temperature;humidity
36444;DHT22;24692;45.642;13.806;2022-10-31T00:01:36;16.90;99.90
36444;DHT22;24692;45.642;13.806;2022-10-31T00:04:03;16.90;99.90
36444;DHT22;24692;45.642;13.806;2022-10-31T00:06:29;16.90;99.90
36444;DHT22;24692;45.642;13.806;2022-10-31T00:08:57;16.80;99.90
36444;DHT22;24692;45.642;13.806;2022-10-31T00:11:23;16.80;99.90
36444;DHT22;24692;45.642;13.806;2022-10-31T00:13:49;16.80;99.90
36444;DHT22;24692;45.642;13.806;2022-10-31T00:16:20;16.70;99.90
36444;DHT22;24692;45.642;13.806;2022-10-31T00:18:54;16.70;99.90
36444;DHT22;24692;45.642;13.806;2022-10-31T00:21:21;16.70;99.90
36444;DHT22;24692;45.642;13.806;2022-10-31T00:23:47;16.70;99.90
36444;DHT22;24692;45.642;13.806;2022-10-31T00:26:13;16.70;99.90
36444;DHT22;24692;45.642;13.806;2022-10-31T00:28:39;16.60;99.90
36444;DHT22;24692;45.642;13.806;2022-10-31T00:31:07;16.60;99.90
36444;DHT22;24692;45.642;13.806;2022-10-31T00:33:34;16.60;99.90
36444;DHT22;24692;45.642;13.806;2022-10-31T00:36:00;16.60;99.90
36444;DHT22;24692;45.642;13.806;2022-10-31T00:38:26;16.70;99.90
36444;DHT22;24692;45.642;13.806;2022-10-31T00:40:51;16.60;99.90
36444;DHT22;24692;45.642;13.806;2022-10-31T00:43:17;16.70;99.90
36444;DHT22;24692;45.642;13.806;2022-10-31T00:45:43;16.60;99.90
36444;DHT22;24692;45.642;13.806;2022-10-31T00:48:09;16.60;99.90
36444;DHT22;24692;45.642;13.806;2022-10-31T00:50:35;16.60;99.90
36444;DHT22;24692;45.642;13.806;2022-10-31T00:53:01;16.60;99.90
36444;DHT22;24692;45.642;13.806;2022-10-31T00:55:27;16.60;99.90
36444;DHT22;24692;45.642;13.806;2022-10-31T00:57:52;16.60;99.90
36444;DHT22;24692;45.642;13.806;2022-10-31T01:00:18;16.60;99.90
36444;DHT22;24692;45.642;13.806;2022-10-31T01:02:44;16.60;99.90
36444;DHT22;24692;45.642;13.806;2022-10-31T01:05:09;16.60;99.90
36444;DHT22;24692;45.642;13.806;2022-10-31T01:07:36;16.60;99.90
36444;DHT22;24692;45.642;13.806;2022-10-31T01:10:03;16.60;99.90
36444;DHT22;24692;45.642;13.806;2022-10-31T01:12:29;16.50;99.90
36444;DHT22;24692;45.642;13.806;2022-10-31T01:14:54;16.50;99.90
36444;DHT22;24692;45.642;13.806;2022-10-31T01:17:20;16.50;99.90
36444;DHT22;24692;45.642;13.806;2022-10-31T01:19:46;16.50;99.90
36444;DHT22;24692;45.642;13.806;2022-10-31T01:22:11;16.50;99.90
36444;DHT22;24692;45.642;13.806;2022-10-31T01:24:37;16.50;99.90
36444;DHT22;24692;45.642;13.806;2022-10-31T01:27:03;16.50;99.90
36444;DHT22;24692;45.642;13.806;2022-10-31T01:29:28;16.50;99.90
36444;DHT22;24692;45.642;13.806;2022-10-31T01:31:54;16.50;99.90
36444;DHT22;24692;45.642;13.806;2022-10-31T01:34:20;16.50;99.90
36444;DHT22;24692;45.642;13.806;2022-10-31T01:36:46;16.50;99.90
36444;DHT22;24692;45.642;13.806;2022-10-31T01:39:16;16.50;99.90
36444;DHT22;24692;45.642;13.806;2022-10-31T01:41:45;16.50;99.90
36444;DHT22;24692;45.642;13.806;2022-10-31T01:46:44;16.50;99.90
36444;DHT22;24692;45.642;13.806;2022-10-31T01:49:18;16.50;99.90
36444;DHT22;24692;45.642;13.806;2022-10-31T01:51:59;16.50;99.90
36444;DHT22;24692;45.642;13.806;2022-10-31T01:54:35;16.40;99.90
36444;DHT22;24692;45.642;13.806;2022-10-31T01:57:03;16.50;99.90
36444;DHT22;24692;45.642;13.806;2022-10-31T01:59:32;16.50;99.90
36444;DHT22;24692;45.642;13.806;2022-10-31T02:01:59;16.50;99.90
36444;DHT22;24692;45.642;13.806;2022-10-31T02:04:25;16.50;99.90
36444;DHT22;24692;45.642;13.806;2022-10-31T02:06:56;16.50;99.90
36444;DHT22;24692;45.642;13.806;2022-10-31T02:09:23;16.50;99.90
36444;DHT22;24692;45.642;13.806;2022-10-31T02:11:55;16.50;99.90
36444;DHT22;24692;45.642;13.806;2022-10-31T02:14:23;16.60;99.90
36444;DHT22;24692;45.642;13.806;2022-10-31T02:16:50;16.50;99.90
36444;DHT22;24692;45.642;13.806;2022-10-31T02:19:25;16.50;99.90
36444;DHT22;24692;45.642;13.806;2022-10-31T02:22:00;16.50;99.90
36444;DHT22;24692;45.642;13.806;2022-10-31T02:24:44;16.50;99.90
36444;DHT22;24692;45.642;13.806;2022-10-31T02:28:07;16.50;99.90
36444;DHT22;24692;45.642;13.806;2022-10-31T02:30:13;16.50;99.90
36444;DHT22;24692;45.642;13.806;2022-10-31T02:32:58;16.50;99.90
36444;DHT22;24692;45.642;13.806;2022-10-31T02:40:51;16.40;99.90
36444;DHT22;24692;45.642;13.806;2022-10-31T02:43:35;16.40;99.90
36444;DHT22;24692;45.642;13.806;2022-10-31T02:48:33;16.40;99.90
36444;DHT22;24692;45.642;13.806;2022-10-31T02:51:03;16.40;99.90
36444;DHT22;24692;45.642;13.806;2022-10-31T02:53:33;16.40;99.90
36444;DHT22;24692;45.642;13.806;2022-10-31T02:56:04;16.50;99.90
36444;DHT22;24692;45.642;13.806;2022-10-31T02:58:34;16.50;99.90
36444;DHT22;24692;45.642;13.806;2022-10-31T03:03:53;16.30;99.90
36444;DHT22;24692;45.642;13.806;2022-10-31T03:06:45;16.30;99.90
36444;DHT22;24692;45.642;13.806;2022-10-31T03:15:27;16.20;99.90
36444;DHT22;24692;45.642;13.806;2022-10-31T03:23:34;16.20;99.90
36444;DHT22;24692;45.642;13.806;2022-10-31T03:26:05;16.10;99.90
36444;DHT22;24692;45.642;13.806;2022-10-31T03:28:36;16.00;99.90
36444;DHT22;24692;45.642;13.806;2022-10-31T03:31:04;16.00;99.90
36444;DHT22;24692;45.642;13.806;2022-10-31T03:33:34;16.10;99.90
36444;DHT22;24692;45.642;13.806;2022-10-31T03:36:03;16.10;99.90
36444;DHT22;24692;45.642;13.806;2022-10-31T03:38:29;16.10;99.90
36444;DHT22;24692;45.642;13.806;2022-10-31T03:40:59;16.10;99.90
36444;DHT22;24692;45.642;13.806;2022-10-31T03:43:30;16.10;99.90
36444;DHT22;24692;45.642;13.806;2022-10-31T03:45:58;16.20;99.90
36444;DHT22;24692;45.642;13.806;2022-10-31T03:48:24;16.20;99.90
36444;DHT22;24692;45.642;13.806;2022-10-31T03:53:55;16.10;99.90
36444;DHT22;24692;45.642;13.806;2022-10-31T03:56:41;16.10;99.90
36444;DHT22;24692;45.642;13.806;2022-10-31T03:59:16;16.10;99.90
36444;DHT22;24692;45.642;13.806;2022-10-31T04:01:46;16.10;99.90
36444;DHT22;24692;45.642;13.806;2022-10-31T04:04:13;16.10;99.90
36444;DHT22;24692;45.642;13.806;2022-10-31T04:06:41;16.10;99.90
36444;DHT22;24692;45.642;13.806;2022-10-31T04:09:09;16.10;99.90
36444;DHT22;24692;45.642;13.806;2022-10-31T04:11:45;16.10;99.90
36444;DHT22;24692;45.642;13.806;2022-10-31T04:14:11;16.10;99.90
36444;DHT22;24692;45.642;13.806;2022-10-31T04:16:40;16.10;99.90
36444;DHT22;24692;45.642;13.806;2022-10-31T04:19:07;16.10;99.90
36444;DHT22;24692;45.642;13.806;2022-10-31T04:21:33;16.10;99.90
36444;DHT22;24692;45.642;13.806;2022-10-31T04:23:58;16.10;99.90
36444;DHT22;24692;45.642;13.806;2022-10-31T04:26:24;16.10;99.90
36444;DHT22;24692;45.642;13.806;2022-10-31T04:28:50;16.10;99.90
36444;DHT22;24692;45.642;13.806;2022-10-31T04:31:15;16.10;99.90
36444;DHT22;24692;45.642;13.806;2022-10-31T04:33:41;16.00;99.90
36444;DHT22;24692;45.642;13.806;2022-10-31T04:36:07;16.10;99.90
36444;DHT22;24692;45.642;13.806;2022-10-31T04:38:33;16.10;99.90
36444;DHT22;24692;45.642;13.806;2022-10-31T04:40:58;16.10;99.90
36444;DHT22;24692;45.642;13.806;2022-10-31T04:43:24;16.20;99.90
36444;DHT22;24692;45.642;13.806;2022-10-31T04:45:50;16.20;99.90
36444;DHT22;24692;45.642;13.806;2022-10-31T04:48:15;16.10;99.90
36444;DHT22;24692;45.642;13.806;2022-10-31T04:50:41;16.00;99.90
36444;DHT22;24692;45.642;13.806;2022-10-31T04:53:07;16.00;99.90
36444;DHT22;24692;45.642;13.806;2022-10-31T04:55:35;16.00;99.90
36444;DHT22;24692;45.642;13.806;2022-10-31T04:58:00;16.00;99.90
36444;DHT22;24692;45.642;13.806;2022-10-31T05:00:26;16.00;99.90
36444;DHT22;24692;45.642;13.806;2022-10-31T05:02:56;16.00;99.90
36444;DHT22;24692;45.642;13.806;2022-10-31T05:05:30;15.90;99.90
36444;DHT22;24692;45.642;13.806;2022-10-31T05:07:56;15.90;99.90
36444;DHT22;24692;45.642;13.806;2022-10-31T05:10:26;15.90;99.90
36444;DHT22;24692;45.642;13.806;2022-10-31T05:12:58;15.90;99.90
36444;DHT22;24692;45.642;13.806;2022-10-31T05:15:25;15.90;99.90
36444;DHT22;24692;45.642;13.806;2022-10-31T05:17:52;15.90;99.90
36444;DHT22;24692;45.642;13.806;2022-10-31T05:20:19;15.80;99.90
36444;DHT22;24692;45.642;13.806;2022-10-31T05:22:50;15.80;99.90
36444;DHT22;24692;45.642;13.806;2022-10-31T05:25:17;15.80;99.90
36444;DHT22;24692;45.642;13.806;2022-10-31T05:27:45;15.80;99.90
36444;DHT22;24692;45.642;13.806;2022-10-31T05:30:13;15.80;99.90
36444;DHT22;24692;45.642;13.806;2022-10-31T05:32:44;15.80;99.90
36444;DHT22;24692;45.642;13.806;2022-10-31T05:35:12;15.80;99.90
36444;DHT22;24692;45.642;13.806;2022-10-31T05:37:38;15.80;99.90
36444;DHT22;24692;45.642;13.806;2022-10-31T05:40:06;15.90;99.90
36444;DHT22;24692;45.642;13.806;2022-10-31T05:42:33;15.90;99.90
36444;DHT22;24692;45.642;13.806;2022-10-31T05:44:59;16.00;99.90
36444;DHT22;24692;45.642;13.806;2022-10-31T05:47:25;16.00;99.90
36444;DHT22;24692;45.642;13.806;2022-10-31T05:49:50;16.10;99.90
36444;DHT22;24692;45.642;13.806;2022-10-31T05:52:16;16.10;99.90
36444;DHT22;24692;45.642;13.806;2022-10-31T05:54:42;16.10;99.90
36444;DHT22;24692;45.642;13.806;2022-10-31T05:57:08;16.10;99.90
36444;DHT22;24692;45.642;13.806;2022-10-31T05:59:33;16.20;99.90
36444;DHT22;24692;45.642;13.806;2022-10-31T06:01:59;16.20;99.90
36444;DHT22;24692;45.642;13.806;2022-10-31T06:04:25;16.20;99.90
36444;DHT22;24692;45.642;13.806;2022-10-31T06:06:50;16.20;99.90
36444;DHT22;24692;45.642;13.806;2022-10-31T06:09:16;16.30;99.90
36444;DHT22;24692;45.642;13.806;2022-10-31T06:11:42;16.40;99.90
36444;DHT22;24692;45.642;13.806;2022-10-31T06:14:07;16.40;99.90
36444;DHT22;24692;45.642;13.806;2022-10-31T06:16:33;16.50;99.90
36444;DHT22;24692;45.642;13.806;2022-10-31T06:18:59;16.60;99.90
36444;DHT22;24692;45.642;13.806;2022-10-31T06:21:24;16.70;99.90
36444;DHT22;24692;45.642;13.806;2022-10-31T06:23:50;16.70;99.90
36444;DHT22;24692;45.642;13.806;2022-10-31T06:26:16;17.00;99.90
36444;DHT22;24692;45.642;13.806;2022-10-31T06:28:42;17.50;99.90
36444;DHT22;24692;45.642;13.806;2022-10-31T06:31:07;18.30;99.90
36444;DHT22;24692;45.642;13.806;2022-10-31T06:33:33;19.20;99.90
36444;DHT22;24692;45.642;13.806;2022-10-31T06:35:59;20.10;99.90
36444;DHT22;24692;45.642;13.806;2022-10-31T06:38:26;21.00;99.90
36444;DHT22;24692;45.642;13.806;2022-10-31T06:40:52;21.70;99.90
36444;DHT22;24692;45.642;13.806;2022-10-31T06:43:18;22.40;99.90
36444;DHT22;24692;45.642;13.806;2022-10-31T06:45:44;22.70;99.90
36444;DHT22;24692;45.642;13.806;2022-10-31T06:48:09;22.90;99.90
36444;DHT22;24692;45.642;13.806;2022-10-31T06:50:35;23.60;99.90
36444;DHT22;24692;45.642;13.806;2022-10-31T06:53:00;24.40;99.90
36444;DHT22;24692;45.642;13.806;2022-10-31T06:55:27;24.90;99.90
36444;DHT22;24692;45.642;13.806;2022-10-31T06:57:57;25.40;99.90
36444;DHT22;24692;45.642;13.806;2022-10-31T07:00:24;25.70;99.90
36444;DHT22;24692;45.642;13.806;2022-10-31T07:02:58;26.00;99.90
36444;DHT22;24692;45.642;13.806;2022-10-31T07:05:24;26.50;99.90
36444;DHT22;24692;45.642;13.806;2022-10-31T07:07:54;27.00;99.90
36444;DHT22;24692;45.642;13.806;2022-10-31T07:10:20;27.20;99.90
36444;DHT22;24692;45.642;13.806;2022-10-31T07:12:46;28.00;99.90
36444;DHT22;24692;45.642;13.806;2022-10-31T07:15:12;28.70;99.90
36444;DHT22;24692;45.642;13.806;2022-10-31T07:17:37;29.20;99.90
36444;DHT22;24692;45.642;13.806;2022-10-31T07:20:03;29.20;99.90
36444;DHT22;24692;45.642;13.806;2022-10-31T07:22:34;29.60;99.90
36444;DHT22;24692;45.642;13.806;2022-10-31T07:24:59;29.60;99.90
36444;DHT22;24692;45.642;13.806;2022-10-31T07:27:25;29.30;99.90
36444;DHT22;24692;45.642;13.806;2022-10-31T07:29:50;29.60;99.90
36444;DHT22;24692;45.642;13.806;2022-10-31T07:32:16;30.30;99.90
36444;DHT22;24692;45.642;13.806;2022-10-31T07:34:42;30.20;99.90
36444;DHT22;24692;45.642;13.806;2022-10-31T07:37:07;30.30;99.90
36444;DHT22;24692;45.642;13.806;2022-10-31T07:39:33;30.50;99.90
36444;DHT22;24692;45.642;13.806;2022-10-31T07:41:59;30.50;99.90
36444;DHT22;24692;45.642;13.806;2022-10-31T07:44:24;31.20;99.90
36444;DHT22;24692;45.642;13.806;2022-10-31T07:46:50;31.30;99.90
36444;DHT22;24692;45.642;13.806;2022-10-31T07:49:15;31.40;99.90
36444;DHT22;24692;45.642;13.806;2022-10-31T07:51:41;31.80;99.90
36444;DHT22;24692;45.642;13.806;2022-10-31T07:54:07;32.20;99.90
36444;DHT22;24692;45.642;13.806;2022-10-31T07:56:32;32.20;99.90
36444;DHT22;24692;45.642;13.806;2022-10-31T07:58:58;32.30;99.90
36444;DHT22;24692;45.642;13.806;2022-10-31T08:01:24;31.90;99.90
36444;DHT22;24692;45.642;13.806;2022-10-31T08:03:49;31.70;99.90
36444;DHT22;24692;45.642;13.806;2022-10-31T08:06:15;31.40;99.90
36444;DHT22;24692;45.642;13.806;2022-10-31T08:08:40;31.50;99.90
36444;DHT22;24692;45.642;13.806;2022-10-31T08:11:06;31.40;99.90
36444;DHT22;24692;45.642;13.806;2022-10-31T08:13:32;31.30;99.90
36444;DHT22;24692;45.642;13.806;2022-10-31T08:15:58;31.80;99.90
36444;DHT22;24692;45.642;13.806;2022-10-31T08:18:30;32.10;99.90
36444;DHT22;24692;45.642;13.806;2022-10-31T08:20:59;32.10;99.90
36444;DHT22;24692;45.642;13.806;2022-10-31T08:23:25;32.10;99.90
36444;DHT22;24692;45.642;13.806;2022-10-31T08:25:50;31.80;99.90
36444;DHT22;24692;45.642;13.806;2022-10-31T08:28:16;32.20;99.90
36444;DHT22;24692;45.642;13.806;2022-10-31T08:30:42;32.40;99.90
36444;DHT22;24692;45.642;13.806;2022-10-31T08:35:34;32.60;99.90
36444;DHT22;24692;45.642;13.806;2022-10-31T08:38:00;32.50;99.90
36444;DHT22;24692;45.642;13.806;2022-10-31T08:40:27;32.70;99.90
36444;DHT22;24692;45.642;13.806;2022-10-31T08:43:13;32.70;99.90
36444;DHT22;24692;45.642;13.806;2022-10-31T08:45:39;32.80;99.90
36444;DHT22;24692;45.642;13.806;2022-10-31T08:48:07;32.60;99.90
36444;DHT22;24692;45.642;13.806;2022-10-31T08:50:35;33.00;99.90
36444;DHT22;24692;45.642;13.806;2022-10-31T08:53:06;32.90;99.90
36444;DHT22;24692;45.642;13.806;2022-10-31T08:55:36;32.70;99.90
36444;DHT22;24692;45.642;13.806;2022-10-31T08:58:03;32.00;99.90
36444;DHT22;24692;45.642;13.806;2022-10-31T09:00:29;31.60;99.90
36444;DHT22;24692;45.642;13.806;2022-10-31T09:02:59;32.00;99.90
36444;DHT22;24692;45.642;13.806;2022-10-31T09:05:25;31.90;99.90
36444;DHT22;24692;45.642;13.806;2022-10-31T09:07:52;31.60;99.90
36444;DHT22;24692;45.642;13.806;2022-10-31T09:10:20;31.40;99.90
36444;DHT22;24692;45.642;13.806;2022-10-31T09:12:45;30.80;99.90
36444;DHT22;24692;45.642;13.806;2022-10-31T09:15:11;31.00;99.90
36444;DHT22;24692;45.642;13.806;2022-10-31T09:17:37;31.60;99.90
36444;DHT22;24692;45.642;13.806;2022-10-31T09:20:03;32.60;99.90
36444;DHT22;24692;45.642;13.806;2022-10-31T09:22:28;32.90;99.90
36444;DHT22;24692;45.642;13.806;2022-10-31T09:24:54;32.60;99.90
36444;DHT22;24692;45.642;13.806;2022-10-31T09:27:19;32.50;99.90
36444;DHT22;24692;45.642;13.806;2022-10-31T09:29:45;32.60;99.90
36444;DHT22;24692;45.642;13.806;2022-10-31T09:32:11;32.80;99.90
36444;DHT22;24692;45.642;13.806;2022-10-31T09:34:36;32.20;99.90
36444;DHT22;24692;45.642;13.806;2022-10-31T09:37:02;31.90;99.90
36444;DHT22;24692;45.642;13.806;2022-10-31T09:39:27;31.40;99.90
36444;DHT22;24692;45.642;13.806;2022-10-31T09:47:16;32.20;99.90
36444;DHT22;24692;45.642;13.806;2022-10-31T09:52:30;31.90;99.90
36444;DHT22;24692;45.642;13.806;2022-10-31T09:57:32;31.40;99.90
36444;DHT22;24692;45.642;13.806;2022-10-31T09:59:59;31.50;99.90
36444;DHT22;24692;45.642;13.806;2022-10-31T10:05:00;31.80;99.90
36444;DHT22;24692;45.642;13.806;2022-10-31T10:13:16;32.40;99.90
36444;DHT22;24692;45.642;13.806;2022-10-31T10:18:52;30.80;99.90
36444;DHT22;24692;45.642;13.806;2022-10-31T10:21:35;31.00;99.90
36444;DHT22;24692;45.642;13.806;2022-10-31T10:24:08;31.30;99.90
36444;DHT22;24692;45.642;13.806;2022-10-31T10:26:38;30.60;99.90
36444;DHT22;24692;45.642;13.806;2022-10-31T10:31:53;30.40;99.90
36444;DHT22;24692;45.642;13.806;2022-10-31T10:34:41;30.40;99.90
36444;DHT22;24692;45.642;13.806;2022-10-31T10:37:22;31.40;99.90
36444;DHT22;24692;45.642;13.806;2022-10-31T10:39:54;30.80;99.90
36444;DHT22;24692;45.642;13.806;2022-10-31T10:42:23;30.90;99.90
36444;DHT22;24692;45.642;13.806;2022-10-31T10:45:19;31.30;99.90
36444;DHT22;24692;45.642;13.806;2022-10-31T10:48:15;31.40;99.90
36444;DHT22;24692;45.642;13.806;2022-10-31T10:50:48;31.70;99.90
36444;DHT22;24692;45.642;13.806;2022-10-31T10:56:15;32.40;99.90
36444;DHT22;24692;45.642;13.806;2022-10-31T10:58:43;32.40;99.90
36444;DHT22;24692;45.642;13.806;2022-10-31T11:01:12;32.10;99.90
36444;DHT22;24692;45.642;13.806;2022-10-31T11:03:39;31.80;99.90
36444;DHT22;24692;45.642;13.806;2022-10-31T11:06:17;32.10;99.90
36444;DHT22;24692;45.642;13.806;2022-10-31T11:08:42;31.90;99.90
36444;DHT22;24692;45.642;13.806;2022-10-31T11:13:46;32.30;99.90
36444;DHT22;24692;45.642;13.806;2022-10-31T11:16:15;31.90;99.90
36444;DHT22;24692;45.642;13.806;2022-10-31T11:18:51;31.60;99.90
36444;DHT22;24692;45.642;13.806;2022-10-31T11:21:28;31.50;99.90
36444;DHT22;24692;45.642;13.806;2022-10-31T11:26:36;31.90;99.90
36444;DHT22;24692;45.642;13.806;2022-10-31T11:29:04;32.30;99.90
36444;DHT22;24692;45.642;13.806;2022-10-31T11:31:31;32.10;99.90
36444;DHT22;24692;45.642;13.806;2022-10-31T11:33:59;32.10;99.90
36444;DHT22;24692;45.642;13.806;2022-10-31T11:36:29;31.90;99.90
36444;DHT22;24692;45.642;13.806;2022-10-31T11:38:56;31.90;99.90
36444;DHT22;24692;45.642;13.806;2022-10-31T11:41:27;32.00;99.90
36444;DHT22;24692;45.642;13.806;2022-10-31T11:44:12;32.00;99.90
36444;DHT22;24692;45.642;13.806;2022-10-31T11:46:41;32.30;99.90
36444;DHT22;24692;45.642;13.806;2022-10-31T11:49:29;31.40;99.90
36444;DHT22;24692;45.642;13.806;2022-10-31T11:51:57;30.50;99.90
36444;DHT22;24692;45.642;13.806;2022-10-31T11:57:33;31.30;99.90
36444;DHT22;24692;45.642;13.806;2022-10-31T12:02:46;31.30;99.90
36444;DHT22;24692;45.642;13.806;2022-10-31T12:05:18;31.80;99.90
36444;DHT22;24692;45.642;13.806;2022-10-31T12:07:48;31.80;99.90
36444;DHT22;24692;45.642;13.806;2022-10-31T12:10:14;31.50;99.90
36444;DHT22;24692;45.642;13.806;2022-10-31T12:13:00;31.00;99.90
36444;DHT22;24692;45.642;13.806;2022-10-31T12:15:38;29.70;99.90
36444;DHT22;24692;45.642;13.806;2022-10-31T12:34:59;30.90;99.90
36444;DHT22;24692;45.642;13.806;2022-10-31T12:41:05;30.80;99.90
36444;DHT22;24692;45.642;13.806;2022-10-31T12:46:03;31.30;99.90
36444;DHT22;24692;45.642;13.806;2022-10-31T12:48:47;32.10;99.90
36444;DHT22;24692;45.642;13.806;2022-10-31T12:54:15;31.60;99.90
36444;DHT22;24692;45.642;13.806;2022-10-31T12:56:54;31.90;99.90
36444;DHT22;24692;45.642;13.806;2022-10-31T12:59:59;31.40;99.90
36444;DHT22;24692;45.642;13.806;2022-10-31T13:02:30;31.60;99.90
36444;DHT22;24692;45.642;13.806;2022-10-31T13:10:23;31.70;99.90
36444;DHT22;24692;45.642;13.806;2022-10-31T13:12:55;31.20;99.90
36444;DHT22;24692;45.642;13.806;2022-10-31T13:15:26;31.60;99.90
36444;DHT22;24692;45.642;13.806;2022-10-31T13:18:03;31.60;99.90
36444;DHT22;24692;45.642;13.806;2022-10-31T13:20:38;31.90;99.90
36444;DHT22;24692;45.642;13.806;2022-10-31T13:25:55;32.00;99.90
36444;DHT22;24692;45.642;13.806;2022-10-31T13:31:08;32.00;99.90
36444;DHT22;24692;45.642;13.806;2022-10-31T13:48:51;30.20;99.90
36444;DHT22;24692;45.642;13.806;2022-10-31T13:51:28;30.20;99.90
36444;DHT22;24692;45.642;13.806;2022-10-31T13:56:31;30.30;99.90
36444;DHT22;24692;45.642;13.806;2022-10-31T14:01:23;30.50;99.90
36444;DHT22;24692;45.642;13.806;2022-10-31T14:04:22;30.60;99.90
36444;DHT22;24692;45.642;13.806;2022-10-31T14:10:03;30.50;99.90
36444;DHT22;24692;45.642;13.806;2022-10-31T14:15:00;30.50;99.90
36444;DHT22;24692;45.642;13.806;2022-10-31T14:17:31;30.50;99.90
36444;DHT22;24692;45.642;13.806;2022-10-31T14:20:42;30.00;99.90
36444;DHT22;24692;45.642;13.806;2022-10-31T14:22:48;29.90;99.90
36444;DHT22;24692;45.642;13.806;2022-10-31T14:25:34;29.60;99.90
36444;DHT22;24692;45.642;13.806;2022-10-31T14:30:57;28.90;99.90
36444;DHT22;24692;45.642;13.806;2022-10-31T14:33:26;28.70;99.90
36444;DHT22;24692;45.642;13.806;2022-10-31T14:36:59;28.70;99.90
36444;DHT22;24692;45.642;13.806;2022-10-31T14:52:25;27.00;99.90
36444;DHT22;24692;45.642;13.806;2022-10-31T14:54:54;26.30;99.90
36444;DHT22;24692;45.642;13.806;2022-10-31T14:57:27;26.00;99.90
36444;DHT22;24692;45.642;13.806;2022-10-31T15:00:14;25.60;99.90
36444;DHT22;24692;45.642;13.806;2022-10-31T15:05:50;24.90;99.90
36444;DHT22;24692;45.642;13.806;2022-10-31T15:10:57;24.50;99.90
36444;DHT22;24692;45.642;13.806;2022-10-31T15:13:23;24.30;99.90
36444;DHT22;24692;45.642;13.806;2022-10-31T15:15:55;24.00;99.90
36444;DHT22;24692;45.642;13.806;2022-10-31T15:18:30;23.90;99.90
36444;DHT22;24692;45.642;13.806;2022-10-31T15:20:56;23.60;99.90
36444;DHT22;24692;45.642;13.806;2022-10-31T15:23:28;23.50;99.90
36444;DHT22;24692;45.642;13.806;2022-10-31T15:26:01;23.30;99.90
36444;DHT22;24692;45.642;13.806;2022-10-31T15:28:28;23.10;99.90
36444;DHT22;24692;45.642;13.806;2022-10-31T15:30:56;22.80;99.90
36444;DHT22;24692;45.642;13.806;2022-10-31T15:33:39;22.70;99.90
36444;DHT22;24692;45.642;13.806;2022-10-31T15:36:06;22.50;99.90
36444;DHT22;24692;45.642;13.806;2022-10-31T15:38:31;22.40;99.90
36444;DHT22;24692;45.642;13.806;2022-10-31T15:41:04;22.30;99.90
36444;DHT22;24692;45.642;13.806;2022-10-31T15:43:38;22.10;99.90
36444;DHT22;24692;45.642;13.806;2022-10-31T15:46:07;21.90;99.90
36444;DHT22;24692;45.642;13.806;2022-10-31T15:48:34;21.70;99.90
36444;DHT22;24692;45.642;13.806;2022-10-31T15:51:01;21.50;99.90
36444;DHT22;24692;45.642;13.806;2022-10-31T15:53:49;21.30;99.90
36444;DHT22;24692;45.642;13.806;2022-10-31T15:56:30;21.30;99.90
36444;DHT22;24692;45.642;13.806;2022-10-31T15:58:58;21.20;99.90
36444;DHT22;24692;45.642;13.806;2022-10-31T16:01:27;21.00;99.90
36444;DHT22;24692;45.642;13.806;2022-10-31T16:06:37;20.90;99.90
36444;DHT22;24692;45.642;13.806;2022-10-31T16:09:04;20.80;99.90
36444;DHT22;24692;45.642;13.806;2022-10-31T16:11:44;20.60;99.90
36444;DHT22;24692;45.642;13.806;2022-10-31T16:16:42;20.40;99.90
36444;DHT22;24692;45.642;13.806;2022-10-31T16:19:22;20.30;99.90
36444;DHT22;24692;45.642;13.806;2022-10-31T16:21:52;20.30;99.90
36444;DHT22;24692;45.642;13.806;2022-10-31T16:24:25;20.20;99.90
36444;DHT22;24692;45.642;13.806;2022-10-31T16:27:05;20.10;99.90
36444;DHT22;24692;45.642;13.806;2022-10-31T16:29:45;20.10;99.90
36444;DHT22;24692;45.642;13.806;2022-10-31T16:32:53;20.10;99.90
36444;DHT22;24692;45.642;13.806;2022-10-31T16:37:53;19.90;99.90
36444;DHT22;24692;45.642;13.806;2022-10-31T16:40:18;19.80;99.90
36444;DHT22;24692;45.642;13.806;2022-10-31T16:42:46;19.60;99.90
36444;DHT22;24692;45.642;13.806;2022-10-31T16:45:22;19.40;99.90
36444;DHT22;24692;45.642;13.806;2022-10-31T16:47:49;19.40;99.90
36444;DHT22;24692;45.642;13.806;2022-10-31T16:50:24;19.50;99.90
36444;DHT22;24692;45.642;13.806;2022-10-31T16:52:50;19.50;99.90
36444;DHT22;24692;45.642;13.806;2022-10-31T16:55:17;19.50;99.90
36444;DHT22;24692;45.642;13.806;2022-10-31T16:57:52;19.60;99.90
36444;DHT22;24692;45.642;13.806;2022-10-31T17:00:25;19.70;99.90
36444;DHT22;24692;45.642;13.806;2022-10-31T17:02:53;19.70;99.90
36444;DHT22;24692;45.642;13.806;2022-10-31T17:05:20;19.70;99.90
36444;DHT22;24692;45.642;13.806;2022-10-31T17:07:47;19.70;99.90
36444;DHT22;24692;45.642;13.806;2022-10-31T17:10:14;19.60;99.90
36444;DHT22;24692;45.642;13.806;2022-10-31T17:12:42;19.60;99.90
36444;DHT22;24692;45.642;13.806;2022-10-31T17:15:31;19.60;99.90
36444;DHT22;24692;45.642;13.806;2022-10-31T17:18:00;19.60;99.90
36444;DHT22;24692;45.642;13.806;2022-10-31T17:20:28;19.50;99.90
36444;DHT22;24692;45.642;13.806;2022-10-31T17:22:55;19.50;99.90
36444;DHT22;24692;45.642;13.806;2022-10-31T17:25:23;19.50;99.90
36444;DHT22;24692;45.642;13.806;2022-10-31T17:27:49;19.40;99.90
36444;DHT22;24692;45.642;13.806;2022-10-31T17:30:16;19.50;99.90
36444;DHT22;24692;45.642;13.806;2022-10-31T17:32:43;19.50;99.90
36444;DHT22;24692;45.642;13.806;2022-10-31T17:35:10;19.60;99.90
36444;DHT22;24692;45.642;13.806;2022-10-31T17:37:40;19.70;99.90
36444;DHT22;24692;45.642;13.806;2022-10-31T17:40:13;19.80;99.90
36444;DHT22;24692;45.642;13.806;2022-10-31T17:42:39;19.80;99.90
36444;DHT22;24692;45.642;13.806;2022-10-31T17:45:06;19.90;99.90
36444;DHT22;24692;45.642;13.806;2022-10-31T17:47:33;19.90;99.90
36444;DHT22;24692;45.642;13.806;2022-10-31T17:49:58;19.90;99.90
36444;DHT22;24692;45.642;13.806;2022-10-31T17:52:24;20.00;99.90
36444;DHT22;24692;45.642;13.806;2022-10-31T17:54:49;19.90;99.90
36444;DHT22;24692;45.642;13.806;2022-10-31T17:57:15;19.90;99.90
36444;DHT22;24692;45.642;13.806;2022-10-31T17:59:42;19.90;99.90
36444;DHT22;24692;45.642;13.806;2022-10-31T18:02:10;19.90;99.90
36444;DHT22;24692;45.642;13.806;2022-10-31T18:04:37;19.80;99.90
36444;DHT22;24692;45.642;13.806;2022-10-31T18:07:03;19.80;99.90
36444;DHT22;24692;45.642;13.806;2022-10-31T18:09:29;19.70;99.90
36444;DHT22;24692;45.642;13.806;2022-10-31T18:11:55;19.60;99.90